createdAt,value
2022-09-04T00:02:38.698Z,15.52
2022-09-04T00:06:57.679Z,15.49
2022-09-04T00:11:12.453Z,15.44
2022-09-04T00:15:20.227Z,15.38
2022-09-04T00:19:36.915Z,15.33
2022-09-04T00:23:48.379Z,15.28
2022-09-04T00:27:58.669Z,15.24
2022-09-04T00:32:00.044Z,15.23
2022-09-04T00:36:03.389Z,15.19
2022-09-04T00:40:14.575Z,15.16
2022-09-04T00:44:24.405Z,15.09
2022-09-04T00:48:53.617Z,15.05
2022-09-04T00:53:06.042Z,15.02
2022-09-04T00:57:58.777Z,14.96
2022-09-04T01:02:23.108Z,14.91
2022-09-04T01:06:53.035Z,14.85
2022-09-04T01:11:19.330Z,14.85
2022-09-04T01:15:42.195Z,14.81
2022-09-04T01:20:03.953Z,14.76
2022-09-04T01:24:39.845Z,14.73
2022-09-04T01:29:15.434Z,14.71
2022-09-04T01:33:35.090Z,14.69
2022-09-04T01:37:55.509Z,14.64
2022-09-04T01:42:08.810Z,14.62
2022-09-04T01:46:41.825Z,14.64
2022-09-04T01:50:48.807Z,14.58
2022-09-04T01:55:11.942Z,14.56
2022-09-04T01:59:30.244Z,14.54
2022-09-04T02:04:04.979Z,14.49
2022-09-04T02:08:21.986Z,14.44
2022-09-04T02:12:44.118Z,14.39
2022-09-04T02:16:56.278Z,14.37
2022-09-04T02:21:14.005Z,14.32
2022-09-04T02:25:53.049Z,14.32
2022-09-04T02:30:04.077Z,14.28
2022-09-04T02:34:11.251Z,14.27
2022-09-04T02:38:24.447Z,14.28
2022-09-04T02:42:51.238Z,14.26
2022-09-04T02:47:27.013Z,14.18
2022-09-04T02:52:15.086Z,14.14
2022-09-04T02:56:47.981Z,14.09
2022-09-04T03:00:55.735Z,13.95
2022-09-04T03:05:09.843Z,13.91
2022-09-04T03:09:22.288Z,13.94
2022-09-04T03:13:39.189Z,13.97
2022-09-04T03:17:53.424Z,14.01
2022-09-04T03:22:08.462Z,14.04
2022-09-04T03:26:27.712Z,13.98
2022-09-04T03:30:34.802Z,13.99
2022-09-04T03:34:46.374Z,14.09
2022-09-04T03:39:16.021Z,14.19
2022-09-04T03:43:30.755Z,14.26
2022-09-04T03:47:59.885Z,14.35
2022-09-04T03:52:43.197Z,14.40
2022-09-04T03:57:09.515Z,14.43
2022-09-04T04:01:21.629Z,14.43
2022-09-04T04:05:43.114Z,14.35
2022-09-04T04:09:53.496Z,14.41
2022-09-04T04:14:02.574Z,14.48
2022-09-04T04:18:20.111Z,14.57
2022-09-04T04:22:39.329Z,14.60
2022-09-04T04:26:59.229Z,14.59
2022-09-04T04:31:15.327Z,14.48
2022-09-04T04:36:03.060Z,14.44
2022-09-04T04:40:22.834Z,14.53
2022-09-04T04:44:57.038Z,14.64
2022-09-04T04:49:40.103Z,14.72
2022-09-04T04:54:04.605Z,14.82
2022-09-04T04:58:24.050Z,14.88
2022-09-04T05:02:35.685Z,14.91
2022-09-04T05:07:02.035Z,14.95
2022-09-04T05:11:22.146Z,14.98
2022-09-04T05:15:52.967Z,15.04
2022-09-04T05:20:17.361Z,15.02
2022-09-04T05:24:33.115Z,14.97
2022-09-04T05:28:53.148Z,14.95
2022-09-04T05:33:04.222Z,15.01
2022-09-04T05:37:53.337Z,15.00
2022-09-04T05:42:08.096Z,15.11
2022-09-04T05:46:18.639Z,15.25
2022-09-04T05:50:51.472Z,15.35
2022-09-04T05:54:59.110Z,15.34
2022-09-04T05:59:16.073Z,15.35
2022-09-04T06:04:02.542Z,15.39
2022-09-04T06:08:17.503Z,15.43
2022-09-04T06:12:34.820Z,15.57
2022-09-04T06:16:58.088Z,15.71
2022-09-04T06:21:08.815Z,15.83
2022-09-04T06:25:13.819Z,15.90
2022-09-04T06:29:24.406Z,15.93
2022-09-04T06:33:57.290Z,15.94
2022-09-04T06:38:26.881Z,16.02
2022-09-04T06:42:54.532Z,16.01
2022-09-04T06:46:56.164Z,16.07
2022-09-04T06:51:07.737Z,16.12
2022-09-04T06:55:19.488Z,16.22
2022-09-04T06:59:41.956Z,16.29
2022-09-04T07:03:46.437Z,16.39
2022-09-04T07:08:27.125Z,16.44
2022-09-04T07:12:55.818Z,16.58
2022-09-04T07:17:25.223Z,16.73
2022-09-04T07:21:52.556Z,16.88
2022-09-04T07:26:19.166Z,17.06
2022-09-04T07:30:22.712Z,17.10
2022-09-04T07:34:31.370Z,17.08
2022-09-04T07:38:50.674Z,17.25
2022-09-04T07:42:57.421Z,17.26
2022-09-04T07:47:13.609Z,17.20
2022-09-04T07:51:24.618Z,17.40
2022-09-04T07:55:46.638Z,17.67
2022-09-04T08:00:04.380Z,17.94
2022-09-04T08:04:51.093Z,18.25
2022-09-04T08:09:07.608Z,18.63
2022-09-04T08:13:24.899Z,19.50
2022-09-04T08:18:10.285Z,20.28
2022-09-04T08:22:17.172Z,20.86
2022-09-04T08:26:47.206Z,21.29
2022-09-04T08:31:09.163Z,21.78
2022-09-04T08:35:39.238Z,22.20
2022-09-04T08:39:59.537Z,22.76
2022-09-04T08:44:39.693Z,22.80
2022-09-04T08:49:03.649Z,23.25
2022-09-04T08:53:29.176Z,23.44
2022-09-04T08:58:08.993Z,23.66
2022-09-04T09:02:48.420Z,23.92
2022-09-04T09:07:09.317Z,24.16
2022-09-04T09:11:40.263Z,24.10
2022-09-04T09:16:09.361Z,24.21
2022-09-04T09:20:54.439Z,24.60
2022-09-04T09:25:20.897Z,24.67
2022-09-04T09:29:48.740Z,25.06
2022-09-04T09:34:18.945Z,25.48
2022-09-04T09:38:29.686Z,25.58
2022-09-04T09:42:56.293Z,25.97
2022-09-04T09:47:19.140Z,26.11
2022-09-04T09:51:42.468Z,26.16
2022-09-04T09:56:24.285Z,26.25
2022-09-04T10:00:29.433Z,26.47
2022-09-04T10:04:55.221Z,26.64
2022-09-04T10:09:09.582Z,26.76
2022-09-04T10:13:29.693Z,26.98
2022-09-04T10:17:37.593Z,27.12
2022-09-04T10:21:57.789Z,27.26
2022-09-04T10:25:59.246Z,27.55
2022-09-04T10:30:06.812Z,27.78
2022-09-04T10:34:43.507Z,27.82
2022-09-04T10:39:28.278Z,28.01
2022-09-04T10:43:54.162Z,28.31
2022-09-04T10:48:02.285Z,28.33
2022-09-04T10:52:13.830Z,28.49
2022-09-04T10:56:32.303Z,28.52
2022-09-04T11:01:04.009Z,28.46
2022-09-04T11:05:27.656Z,28.45
2022-09-04T11:09:57.513Z,28.22
2022-09-04T11:14:07.698Z,28.13
2022-09-04T11:18:27.830Z,28.07
2022-09-04T11:22:48.006Z,28.18
2022-09-04T11:26:53.520Z,28.55
2022-09-04T11:31:04.079Z,28.41
2022-09-04T11:35:33.118Z,28.83
2022-09-04T11:40:06.437Z,29.29
2022-09-04T11:44:30.485Z,29.45
2022-09-04T11:48:44.918Z,28.66
2022-09-04T11:53:11.298Z,28.69
2022-09-04T11:57:48.715Z,29.07
2022-09-04T12:02:30.002Z,29.36
2022-09-04T12:06:51.538Z,29.62
2022-09-04T12:11:14.288Z,30.10
2022-09-04T12:15:28.593Z,30.29
2022-09-04T12:19:54.612Z,30.08
2022-09-04T12:24:10.623Z,29.25
2022-09-04T12:29:03.301Z,28.37
2022-09-04T12:33:45.818Z,28.35
2022-09-04T12:37:50.000Z,27.95
2022-09-04T12:42:04.676Z,27.67
2022-09-04T12:46:37.037Z,27.40
2022-09-04T12:50:48.910Z,27.19
2022-09-04T12:54:56.274Z,27.26
2022-09-04T12:59:16.213Z,27.82
2022-09-04T13:03:30.495Z,28.17
2022-09-04T13:07:47.343Z,27.76
2022-09-04T13:12:20.505Z,27.68
2022-09-04T13:16:34.041Z,27.84
2022-09-04T13:21:05.482Z,28.13
2022-09-04T13:25:26.362Z,28.17
2022-09-04T13:29:36.535Z,27.65
2022-09-04T13:33:54.824Z,27.25
2022-09-04T13:38:07.425Z,26.93
2022-09-04T13:42:33.481Z,26.98
2022-09-04T13:46:40.107Z,27.07
2022-09-04T13:50:59.438Z,27.57
2022-09-04T13:55:18.057Z,27.91
2022-09-04T13:59:29.378Z,28.15
2022-09-04T14:03:40.162Z,27.81
2022-09-04T14:07:45.527Z,27.44
2022-09-04T14:11:47.078Z,27.58
2022-09-04T14:16:01.875Z,27.81
2022-09-04T14:20:22.591Z,28.21
2022-09-04T14:24:40.073Z,28.52
2022-09-04T14:29:02.395Z,28.68
2022-09-04T14:33:15.118Z,28.49
2022-09-04T14:37:46.399Z,28.30
2022-09-04T14:42:02.617Z,28.51
2022-09-04T14:46:38.472Z,28.68
2022-09-04T14:51:17.423Z,28.89
2022-09-04T14:55:34.822Z,28.92
2022-09-04T14:59:44.105Z,28.98
2022-09-04T15:04:14.009Z,29.17
2022-09-04T15:08:26.921Z,29.15
2022-09-04T15:12:41.948Z,29.27
2022-09-04T15:16:49.581Z,29.38
2022-09-04T15:21:05.871Z,29.50
2022-09-04T15:25:19.924Z,29.55
2022-09-04T15:29:33.503Z,29.69
2022-09-04T15:33:35.821Z,29.79
2022-09-04T15:37:37.405Z,29.91
2022-09-04T15:41:47.350Z,29.87
2022-09-04T15:45:51.812Z,29.90
2022-09-04T15:49:58.602Z,29.98
2022-09-04T15:54:27.470Z,29.91
2022-09-04T15:58:38.330Z,29.89
2022-09-04T16:02:59.895Z,30.00
2022-09-04T16:07:26.454Z,30.05
2022-09-04T16:11:41.545Z,30.08
2022-09-04T16:15:45.297Z,30.16
2022-09-04T16:19:58.508Z,30.19
2022-09-04T16:24:08.968Z,30.27
2022-09-04T16:28:25.369Z,30.52
2022-09-04T16:32:28.848Z,31.27
2022-09-04T16:37:11.629Z,29.84
2022-09-04T16:41:25.435Z,28.67
2022-09-04T16:45:39.825Z,27.85
2022-09-04T16:50:01.944Z,27.24
2022-09-04T16:54:37.639Z,26.64
2022-09-04T16:59:15.487Z,26.18
2022-09-04T17:03:25.473Z,25.88
2022-09-04T17:07:37.417Z,25.44
2022-09-04T17:11:55.648Z,25.12
2022-09-04T17:16:00.146Z,24.77
2022-09-04T17:20:11.581Z,24.41
2022-09-04T17:29:16.026Z,24.04
2022-09-04T17:29:29.592Z,23.68
2022-09-04T17:37:56.549Z,23.40
2022-09-04T17:40:48.981Z,23.05
2022-09-04T17:43:21.597Z,22.78
2022-09-04T17:47:49.519Z,22.56
2022-09-04T17:51:57.595Z,22.39
2022-09-04T17:56:37.973Z,22.14
2022-09-04T18:01:14.653Z,21.95
2022-09-04T18:05:24.398Z,21.68
2022-09-04T18:09:56.489Z,21.45
2022-09-04T18:14:17.323Z,21.26
2022-09-04T18:18:27.807Z,21.07
2022-09-04T18:22:50.594Z,20.91
2022-09-04T18:27:11.505Z,20.69
2022-09-04T18:37:11.052Z,20.50
2022-09-04T18:37:19.448Z,20.31
2022-09-04T18:46:21.306Z,20.07
2022-09-04T18:50:33.212Z,19.94
2022-09-04T18:50:37.224Z,19.77
2022-09-04T18:54:36.730Z,19.60
2022-09-04T18:58:50.047Z,19.47
2022-09-04T19:03:04.956Z,19.22
2022-09-04T19:07:23.530Z,19.07
2022-09-04T19:11:34.615Z,18.94
2022-09-04T19:16:01.338Z,18.80
2022-09-04T19:20:16.867Z,18.66
2022-09-04T19:24:37.061Z,18.56
2022-09-04T19:28:53.193Z,18.45
2022-09-04T19:33:29.796Z,18.35
2022-09-04T19:40:31.922Z,18.24
2022-09-04T19:46:05.541Z,18.12
2022-09-04T19:46:50.990Z,18.01
2022-09-04T19:53:30.914Z,17.86
2022-09-04T19:55:41.734Z,17.71
2022-09-04T19:59:47.114Z,17.54
2022-09-04T20:04:02.394Z,17.46
2022-09-04T20:08:14.592Z,17.33
2022-09-04T20:12:37.074Z,17.28
2022-09-04T20:16:59.406Z,17.18
2022-09-04T20:21:19.769Z,17.07
2022-09-04T20:25:21.210Z,16.97
2022-09-04T20:29:30.589Z,16.88
2022-09-04T20:33:35.647Z,16.80
2022-09-04T20:37:41.439Z,16.71
2022-09-04T20:41:54.873Z,16.57
2022-09-04T20:49:04.747Z,16.40
2022-09-04T20:52:56.255Z,16.29
2022-09-04T20:55:01.419Z,16.27
2022-09-04T21:03:09.287Z,16.21
2022-09-04T21:04:18.051Z,16.13
2022-09-04T21:09:05.290Z,16.13
2022-09-04T21:13:24.733Z,16.11
2022-09-04T21:17:47.950Z,16.06
2022-09-04T21:22:33.230Z,15.94
2022-09-04T21:26:58.997Z,15.89
2022-09-04T21:31:19.212Z,15.84
2022-09-04T21:35:23.703Z,15.78
2022-09-04T21:39:53.960Z,15.69
2022-09-04T21:43:58.027Z,15.56
2022-09-04T21:48:42.642Z,15.49
2022-09-04T21:53:18.522Z,15.43
2022-09-04T22:02:35.102Z,15.37
2022-09-04T22:02:51.568Z,15.34
2022-09-04T22:09:59.137Z,15.27
2022-09-04T22:13:40.666Z,15.21
2022-09-04T22:17:03.223Z,15.15
2022-09-04T22:21:07.672Z,15.12
2022-09-04T22:25:41.361Z,15.09
2022-09-04T22:30:08.612Z,15.02
2022-09-04T22:34:29.842Z,14.92
2022-09-04T22:38:43.641Z,14.83
2022-09-04T22:43:02.286Z,14.75
2022-09-04T22:47:37.654Z,14.66
2022-09-04T22:52:16.720Z,14.59
2022-09-04T22:56:57.203Z,14.62
2022-09-04T23:01:11.808Z,14.55
2022-09-04T23:05:20.649Z,14.48
2022-09-04T23:13:54.629Z,14.43
2022-09-04T23:14:31.346Z,14.29
2022-09-04T23:22:05.546Z,14.14
2022-09-04T23:26:52.826Z,14.12
2022-09-04T23:28:54.788Z,13.97
2022-09-04T23:33:34.746Z,13.97
2022-09-04T23:38:02.937Z,13.93
2022-09-04T23:42:13.562Z,13.89
2022-09-04T23:46:37.304Z,13.85
2022-09-04T23:51:16.062Z,13.79
2022-09-04T23:55:48.968Z,13.66
